createdAt,value
2019-04-21T00:01:08.728Z,12.18
2019-04-21T00:03:40.711Z,12.75
2019-04-21T00:06:22.375Z,12.60
2019-04-21T00:08:56.088Z,14.00
2019-04-21T00:11:29.891Z,13.90
2019-04-21T00:13:49.697Z,13.62
2019-04-21T00:16:09.237Z,14.45
2019-04-21T00:19:02.546Z,13.65
2019-04-21T00:21:34.395Z,14.53
2019-04-21T00:24:24.274Z,14.18
2019-04-21T00:27:17.431Z,15.63
2019-04-21T00:29:50.033Z,15.78
2019-04-21T00:32:14.839Z,15.48
2019-04-21T00:34:31.913Z,16.17
2019-04-21T00:37:12.242Z,14.13
2019-04-21T00:40:02.172Z,15.25
2019-04-21T00:42:19.556Z,14.58
2019-04-21T00:44:44.235Z,14.35
2019-04-21T00:47:25.421Z,16.55
2019-04-21T00:49:49.349Z,15.08
2019-04-21T00:55:20.222Z,15.65
2019-04-21T00:57:48.175Z,14.55
2019-04-21T01:00:11.857Z,15.78
2019-04-21T01:05:18.332Z,15.45
2019-04-21T01:07:42.238Z,14.93
2019-04-21T01:10:05.188Z,15.38
2019-04-21T01:12:42.620Z,15.30
2019-04-21T01:15:18.428Z,14.98
2019-04-21T01:17:40.520Z,15.68
2019-04-21T01:20:08.165Z,15.40
2019-04-21T01:22:21.096Z,15.25
2019-04-21T01:25:00.110Z,16.23
2019-04-21T01:27:39.824Z,15.78
2019-04-21T01:30:11.716Z,16.15
2019-04-21T01:32:42.421Z,16.17
2019-04-21T01:35:10.180Z,16.42
2019-04-21T01:37:44.238Z,17.10
2019-04-21T01:40:16.972Z,16.42
2019-04-21T01:42:38.197Z,16.02
2019-04-21T01:45:11.381Z,16.77
2019-04-21T01:47:36.111Z,16.77
2019-04-21T01:50:01.550Z,16.27
2019-04-21T01:52:45.453Z,16.57
2019-04-21T01:55:12.801Z,17.45
2019-04-21T01:57:42.511Z,17.30
2019-04-21T02:00:12.989Z,16.82
2019-04-21T02:02:54.599Z,16.50
2019-04-21T02:05:28.381Z,17.35
2019-04-21T02:07:50.578Z,16.70
2019-04-21T02:10:26.994Z,16.20
2019-04-21T02:12:51.089Z,17.27
2019-04-21T02:15:23.727Z,16.73
2019-04-21T02:17:54.150Z,17.25
2019-04-21T02:20:15.204Z,16.73
2019-04-21T02:23:06.040Z,17.90
2019-04-21T02:25:26.249Z,18.15
2019-04-21T02:27:59.243Z,18.02
2019-04-21T02:30:36.184Z,18.20
2019-04-21T02:43:05.403Z,18.60
2019-04-21T02:45:30.252Z,17.05
2019-04-21T02:48:06.323Z,16.65
2019-04-21T02:50:33.493Z,17.07
2019-04-21T02:53:03.577Z,17.37
2019-04-21T02:55:28.936Z,17.52
2019-04-21T02:58:06.130Z,18.87
2019-04-21T03:00:59.590Z,18.40
2019-04-21T03:06:17.983Z,18.37
2019-04-21T03:08:50.378Z,19.23
2019-04-21T03:16:23.442Z,18.25
2019-04-21T03:26:22.498Z,19.65
2019-04-21T03:28:49.521Z,19.82
2019-04-21T03:31:49.512Z,19.52
2019-04-21T03:34:18.493Z,18.70
2019-04-21T03:38:45.350Z,18.00
2019-04-21T03:41:26.849Z,19.40
2019-04-21T03:43:44.309Z,19.50
2019-04-21T03:46:15.935Z,18.70
2019-04-21T03:48:52.032Z,18.62
2019-04-21T03:53:45.973Z,19.80
2019-04-21T03:56:27.011Z,18.95
2019-04-21T04:01:16.483Z,19.02
2019-04-21T04:04:15.180Z,18.50
2019-04-21T04:11:45.635Z,19.23
2019-04-21T04:16:47.724Z,18.73
2019-04-21T04:19:09.597Z,18.32
2019-04-21T04:21:52.556Z,17.80
2019-04-21T04:24:13.628Z,17.20
2019-04-21T04:26:39.513Z,18.75
2019-04-21T04:29:12.241Z,18.12
2019-04-21T04:39:26.374Z,15.60
2019-04-21T04:42:12.369Z,16.12
2019-04-21T04:44:50.051Z,16.15
2019-04-21T04:47:10.297Z,15.65
2019-04-21T04:52:19.276Z,16.62
2019-04-21T04:57:14.199Z,15.50
2019-04-21T04:59:42.971Z,16.17
2019-04-21T05:02:15.032Z,16.37
2019-04-21T05:09:44.669Z,14.80
2019-04-21T05:12:19.726Z,15.32
2019-04-21T05:14:39.716Z,14.93
2019-04-21T05:17:02.265Z,14.53
2019-04-21T05:19:30.570Z,14.35
2019-04-21T05:24:23.093Z,14.13
2019-04-21T05:26:53.297Z,13.68
2019-04-21T05:29:19.389Z,14.00
2019-04-21T05:32:10.607Z,13.78
2019-04-21T05:34:38.217Z,13.55
2019-04-21T05:37:15.541Z,14.95
2019-04-21T05:39:45.142Z,14.75
2019-04-21T05:42:08.962Z,14.25
2019-04-21T05:45:04.279Z,13.75
2019-04-21T05:47:24.962Z,13.90
2019-04-21T05:49:49.795Z,14.10
2019-04-21T05:52:21.533Z,14.13
2019-04-21T05:54:55.706Z,13.60
2019-04-21T05:57:23.876Z,13.70
2019-04-21T05:59:53.355Z,13.70
2019-04-21T06:02:28.929Z,12.93
2019-04-21T06:09:57.203Z,12.80
2019-04-21T06:12:31.651Z,12.63
2019-04-21T06:14:55.956Z,12.50
2019-04-21T06:17:31.465Z,12.98
2019-04-21T06:19:59.086Z,13.48
2019-04-21T06:22:36.105Z,10.25
2019-04-21T06:25:21.573Z,13.83
2019-04-21T06:27:38.980Z,14.10
2019-04-21T06:29:54.705Z,12.90
2019-04-21T06:32:46.706Z,13.38
2019-04-21T06:40:09.301Z,13.55
2019-04-21T06:42:26.675Z,13.78
2019-04-21T06:45:00.135Z,14.47
2019-04-21T06:47:30.214Z,13.20
2019-04-21T06:49:58.731Z,14.13
2019-04-21T06:52:47.931Z,14.70
2019-04-21T06:55:05.382Z,14.33
2019-04-21T06:57:30.578Z,14.47
2019-04-21T06:59:55.293Z,13.50
2019-04-21T07:05:03.668Z,13.70
2019-04-21T07:07:21.736Z,13.38
2019-04-21T07:12:21.974Z,13.58
2019-04-21T07:15:00.189Z,14.13
2019-04-21T07:17:28.345Z,12.70
2019-04-21T07:20:03.818Z,13.40
2019-04-21T07:22:31.102Z,13.18
2019-04-21T07:24:58.680Z,12.98
2019-04-21T07:27:30.324Z,14.45
2019-04-21T07:29:59.570Z,13.40
2019-04-21T07:32:26.771Z,13.72
2019-04-21T07:35:00.321Z,12.43
2019-04-21T07:37:23.956Z,13.03
2019-04-21T07:39:56.041Z,13.55
2019-04-21T07:42:18.547Z,13.53
2019-04-21T07:44:49.541Z,12.90
2019-04-21T07:47:28.437Z,13.28
2019-04-21T07:52:53.345Z,13.25
2019-04-21T07:57:31.627Z,13.88
2019-04-21T08:00:16.115Z,13.70
2019-04-21T08:02:37.322Z,13.60
2019-04-21T08:07:50.702Z,13.55
2019-04-21T08:10:07.779Z,13.45
2019-04-21T08:12:30.165Z,13.40
2019-04-21T08:15:14.308Z,12.85
2019-04-21T08:17:35.861Z,13.32
2019-04-21T08:19:59.157Z,13.95
2019-04-21T08:22:43.217Z,13.40
2019-04-21T08:25:04.435Z,13.40
2019-04-21T08:27:44.725Z,13.28
2019-04-21T08:30:09.613Z,13.32
2019-04-21T08:32:44.740Z,13.95
2019-04-21T08:35:23.970Z,14.03
2019-04-21T08:37:32.863Z,13.85
2019-04-21T08:40:12.369Z,13.55
2019-04-21T08:42:30.507Z,13.95
2019-04-21T08:45:09.186Z,14.50
2019-04-21T08:47:33.696Z,12.93
2019-04-21T08:50:00.947Z,14.00
2019-04-21T08:55:11.179Z,13.75
2019-04-21T09:00:32.504Z,13.10
2019-04-21T09:03:07.972Z,12.68
2019-04-21T09:05:29.705Z,12.78
2019-04-21T09:08:03.813Z,11.38
2019-04-21T09:10:35.425Z,11.70
2019-04-21T09:12:58.766Z,12.55
2019-04-21T09:15:30.930Z,12.07
2019-04-21T09:18:01.308Z,10.95
2019-04-21T09:20:38.750Z,11.83
2019-04-21T09:23:00.471Z,11.38
2019-04-21T09:28:01.317Z,11.63
2019-04-21T09:30:15.278Z,10.63
2019-04-21T09:32:44.590Z,11.30
2019-04-21T09:35:16.643Z,11.03
2019-04-21T09:37:53.460Z,10.82
2019-04-21T09:40:16.858Z,11.35
2019-04-21T09:42:54.156Z,9.73
2019-04-21T09:45:15.770Z,10.00
2019-04-21T09:47:51.020Z,10.00
2019-04-21T09:50:15.148Z,11.28
2019-04-21T09:52:52.289Z,11.10
2019-04-21T09:55:19.002Z,9.60
2019-04-21T09:57:51.548Z,10.13
2019-04-21T10:00:20.648Z,10.28
2019-04-21T10:02:54.738Z,9.48
2019-04-21T10:05:14.532Z,9.88
2019-04-21T10:07:44.244Z,9.53
2019-04-21T10:10:12.929Z,8.58
2019-04-21T10:12:41.440Z,10.45
2019-04-21T10:15:10.660Z,10.35
2019-04-21T10:17:41.850Z,9.85
2019-04-21T10:20:11.652Z,9.53
2019-04-21T10:22:41.372Z,9.48
2019-04-21T10:25:10.706Z,9.33
2019-04-21T10:27:41.109Z,9.40
2019-04-21T10:30:09.962Z,9.28
2019-04-21T10:32:38.709Z,9.33
2019-04-21T10:35:07.471Z,9.50
2019-04-21T10:37:47.369Z,8.95
2019-04-21T10:40:07.662Z,9.60
2019-04-21T10:42:37.258Z,9.83
2019-04-21T10:45:07.314Z,9.15
2019-04-21T10:47:36.845Z,9.23
2019-04-21T10:50:08.778Z,9.73
2019-04-21T10:52:55.574Z,9.20
2019-04-21T10:55:40.217Z,9.63
2019-04-21T11:00:51.541Z,9.58
2019-04-21T11:03:38.353Z,9.93
2019-04-21T11:06:08.629Z,10.05
2019-04-21T11:08:41.655Z,10.30
2019-04-21T11:11:07.993Z,9.70
2019-04-21T11:13:36.929Z,9.50
2019-04-21T11:16:05.569Z,9.88
2019-04-21T11:18:34.029Z,8.98
2019-04-21T11:21:02.994Z,8.93
2019-04-21T11:23:31.519Z,9.20
2019-04-21T11:26:00.127Z,9.15
2019-04-21T11:28:29.227Z,9.40
2019-04-21T11:30:57.851Z,9.53
2019-04-21T11:33:27.116Z,9.13
2019-04-21T11:35:55.528Z,8.88
2019-04-21T11:39:01.082Z,8.75
2019-04-21T11:41:11.832Z,9.28
2019-04-21T11:43:41.347Z,9.08
2019-04-21T11:46:10.824Z,9.73
2019-04-21T11:48:39.997Z,8.75
2019-04-21T11:51:08.999Z,13.70
2019-04-21T11:53:39.028Z,9.50
2019-04-21T11:56:07.448Z,9.43
2019-04-21T11:58:36.064Z,9.50
2019-04-21T12:01:05.592Z,9.65
2019-04-21T12:03:35.627Z,8.83
2019-04-21T12:06:04.101Z,10.08
2019-04-21T12:08:40.177Z,9.35
2019-04-21T12:11:03.234Z,8.98
2019-04-21T12:13:32.253Z,8.85
2019-04-21T12:16:01.058Z,8.63
2019-04-21T12:18:31.685Z,8.88
2019-04-21T12:21:00.007Z,8.18
2019-04-21T12:23:30.217Z,8.73
2019-04-21T12:25:59.089Z,9.45
2019-04-21T12:28:28.059Z,9.15
2019-04-21T12:30:57.771Z,8.23
2019-04-21T12:33:38.043Z,8.03
2019-04-21T12:36:06.688Z,8.83
2019-04-21T12:38:42.725Z,8.78
2019-04-21T12:41:04.921Z,8.80
2019-04-21T12:43:33.175Z,8.45
2019-04-21T12:46:02.231Z,7.83
2019-04-21T12:48:31.770Z,7.65
2019-04-21T12:51:01.740Z,7.45
2019-04-21T12:53:31.818Z,8.50
2019-04-21T12:56:02.002Z,9.28
2019-04-21T12:58:31.129Z,8.00
2019-04-21T13:01:00.808Z,8.35
2019-04-21T13:03:30.414Z,7.67
2019-04-21T13:05:58.920Z,8.43
2019-04-21T13:08:27.307Z,8.63
2019-04-21T13:10:56.118Z,8.58
2019-04-21T13:13:26.003Z,8.08
2019-04-21T13:15:55.767Z,8.55
2019-04-21T13:18:24.176Z,8.45
2019-04-21T13:20:52.436Z,7.80
2019-04-21T13:23:20.937Z,8.30
2019-04-21T13:25:49.885Z,10.15
2019-04-21T13:28:18.757Z,8.48
2019-04-21T13:30:48.519Z,7.92
2019-04-21T13:33:17.212Z,7.65
2019-04-21T13:35:46.789Z,6.80
2019-04-21T13:38:24.507Z,7.85
2019-04-21T13:41:02.448Z,8.53
2019-04-21T13:43:17.075Z,8.60
2019-04-21T13:45:45.844Z,6.83
2019-04-21T13:48:14.801Z,9.38
2019-04-21T13:50:43.633Z,8.20
2019-04-21T13:53:12.407Z,7.45
2019-04-21T13:55:42.472Z,8.05
2019-04-21T13:58:10.868Z,7.58
2019-04-21T14:00:39.950Z,7.47
2019-04-21T14:03:08.360Z,7.28
2019-04-21T14:05:36.616Z,7.47
2019-04-21T14:08:05.058Z,7.90
2019-04-21T14:10:33.623Z,7.65
2019-04-21T14:13:02.551Z,7.75
2019-04-21T14:15:32.317Z,8.13
2019-04-21T14:18:00.945Z,7.90
2019-04-21T14:20:29.215Z,7.35
2019-04-21T14:23:10.303Z,7.78
2019-04-21T14:25:27.959Z,7.70
2019-04-21T14:27:57.727Z,9.00
2019-04-21T14:30:26.293Z,7.92
2019-04-21T14:32:56.238Z,6.92
2019-04-21T14:35:25.161Z,8.78
2019-04-21T14:37:53.744Z,8.68
2019-04-21T14:40:25.600Z,7.12
2019-04-21T14:42:52.160Z,7.50
2019-04-21T14:45:38.766Z,7.20
2019-04-21T14:48:09.212Z,9.08
2019-04-21T14:50:52.381Z,7.78
2019-04-21T14:53:25.735Z,7.20
2019-04-21T14:55:55.307Z,6.80
2019-04-21T14:58:23.812Z,7.33
2019-04-21T15:00:58.148Z,6.78
2019-04-21T15:03:27.720Z,7.97
2019-04-21T15:05:57.650Z,6.65
2019-04-21T15:08:27.072Z,7.50
2019-04-21T15:10:56.789Z,6.53
2019-04-21T15:13:25.961Z,7.42
2019-04-21T15:15:54.423Z,6.10
2019-04-21T15:18:22.951Z,6.60
2019-04-21T15:20:53.131Z,8.45
2019-04-21T15:23:24.424Z,13.68
2019-04-21T15:25:52.359Z,6.08
2019-04-21T15:28:21.933Z,5.97
2019-04-21T15:30:50.530Z,7.95
2019-04-21T15:33:18.769Z,6.47
2019-04-21T15:35:47.091Z,6.28
2019-04-21T15:38:15.968Z,6.92
2019-04-21T15:40:50.521Z,5.83
2019-04-21T15:43:14.762Z,6.42
2019-04-21T15:45:44.282Z,5.92
2019-04-21T15:48:14.015Z,6.28
2019-04-21T15:50:44.045Z,6.50
2019-04-21T15:53:14.267Z,8.20
2019-04-21T15:55:53.360Z,8.63
2019-04-21T15:58:36.786Z,6.72
2019-04-21T16:01:06.961Z,9.15
2019-04-21T16:03:36.450Z,7.80
2019-04-21T16:06:05.646Z,12.90
2019-04-21T16:08:35.259Z,20.05
2019-04-21T16:11:07.362Z,19.85
2019-04-21T16:13:34.144Z,6.50
2019-04-21T16:16:02.538Z,7.22
2019-04-21T16:18:32.007Z,9.93
2019-04-21T16:21:02.094Z,7.92
2019-04-21T16:23:30.767Z,6.35
2019-04-21T16:26:00.184Z,7.20
2019-04-21T16:28:29.063Z,5.60
2019-04-21T16:30:58.407Z,6.22
2019-04-21T16:33:27.180Z,6.12
2019-04-21T16:35:56.040Z,8.18
2019-04-21T16:38:25.764Z,6.37
2019-04-21T16:40:59.747Z,11.80
2019-04-21T16:43:24.982Z,8.38
2019-04-21T16:45:54.638Z,15.30
2019-04-21T16:48:23.395Z,6.20
2019-04-21T16:50:51.978Z,8.63
2019-04-21T16:53:28.248Z,17.57
2019-04-21T16:56:04.869Z,24.45
2019-04-21T16:58:50.509Z,8.48
2019-04-21T17:01:22.002Z,11.38
2019-04-21T17:03:50.603Z,7.75
2019-04-21T17:06:19.377Z,7.12
2019-04-21T17:08:47.898Z,5.70
2019-04-21T17:11:22.768Z,5.62
2019-04-21T17:13:47.290Z,5.30
2019-04-21T17:16:43.443Z,6.58
2019-04-21T17:18:58.801Z,6.80
2019-04-21T17:21:16.768Z,5.97
2019-04-21T17:23:46.435Z,5.97
2019-04-21T17:26:15.210Z,6.28
2019-04-21T17:28:45.010Z,5.75
2019-04-21T17:31:13.711Z,6.47
2019-04-21T17:33:43.455Z,6.37
2019-04-21T17:36:12.105Z,5.53
2019-04-21T17:38:41.778Z,6.65
2019-04-21T17:41:23.243Z,6.58
2019-04-21T17:43:41.622Z,6.03
2019-04-21T17:46:13.605Z,5.72
2019-04-21T17:48:40.683Z,6.62
2019-04-21T17:51:13.696Z,6.00
2019-04-21T17:53:49.684Z,6.00
2019-04-21T17:56:41.375Z,7.45
2019-04-21T17:59:02.852Z,5.92
2019-04-21T18:01:40.805Z,6.17
2019-04-21T18:04:10.845Z,5.53
2019-04-21T18:06:35.219Z,6.03
2019-04-21T18:09:05.708Z,5.60
2019-04-21T18:11:37.092Z,5.65
2019-04-21T18:13:47.573Z,8.38
2019-04-21T18:16:26.757Z,7.08
2019-04-21T18:18:46.994Z,13.65
2019-04-21T18:24:21.843Z,6.28
2019-04-21T18:26:52.135Z,5.90
2019-04-21T18:29:16.173Z,6.90
2019-04-21T18:31:48.662Z,5.58
2019-04-21T18:34:18.175Z,5.58
2019-04-21T18:36:52.530Z,5.92
2019-04-21T18:39:41.273Z,5.80
2019-04-21T18:42:17.530Z,5.90
2019-04-21T18:45:05.190Z,6.12
2019-04-21T18:47:19.931Z,5.55
2019-04-21T18:49:41.809Z,8.15
2019-04-21T18:52:20.795Z,7.17
2019-04-21T18:54:54.772Z,7.12
2019-04-21T18:57:20.502Z,8.08
2019-04-21T18:59:43.167Z,14.87
2019-04-21T19:02:12.459Z,8.38
2019-04-21T19:04:40.893Z,7.70
2019-04-21T19:07:19.884Z,7.10
2019-04-21T19:10:19.087Z,7.45
2019-04-21T19:12:47.985Z,7.30
2019-04-21T19:14:54.837Z,7.83
2019-04-21T19:20:07.471Z,7.75
2019-04-21T19:22:31.326Z,7.90
2019-04-21T19:25:02.334Z,7.60
2019-04-21T19:27:26.502Z,7.67
2019-04-21T19:30:05.138Z,7.42
2019-04-21T19:32:28.794Z,7.28
2019-04-21T19:34:43.856Z,7.25
2019-04-21T19:37:15.465Z,8.30
2019-04-21T19:39:53.923Z,7.95
2019-04-21T19:42:22.650Z,7.62
2019-04-21T19:44:56.451Z,7.85
2019-04-21T19:47:34.661Z,8.00
2019-04-21T19:50:01.486Z,7.58
2019-04-21T19:52:25.562Z,8.45
2019-04-21T19:54:44.652Z,8.45
2019-04-21T19:57:11.177Z,8.55
2019-04-21T19:59:47.250Z,8.35
2019-04-21T20:02:09.802Z,9.10
2019-04-21T20:04:43.901Z,8.20
2019-04-21T20:07:23.387Z,8.43
2019-04-21T20:09:56.777Z,8.48
2019-04-21T20:12:34.287Z,9.00
2019-04-21T20:14:59.582Z,8.03
2019-04-21T20:17:19.039Z,8.30
2019-04-21T20:19:38.397Z,8.88
2019-04-21T20:22:07.148Z,10.25
2019-04-21T20:24:37.603Z,10.08
2019-04-21T20:27:13.359Z,8.60
2019-04-21T20:29:56.178Z,8.73
2019-04-21T20:32:39.755Z,8.68
2019-04-21T20:34:56.253Z,7.92
2019-04-21T20:37:21.345Z,8.93
2019-04-21T20:39:46.142Z,8.25
2019-04-21T20:42:21.005Z,7.65
2019-04-21T20:44:48.372Z,7.45
2019-04-21T20:47:17.104Z,7.83
2019-04-21T20:49:43.882Z,8.33
2019-04-21T20:52:24.290Z,7.37
2019-04-21T20:54:51.391Z,6.70
2019-04-21T20:57:24.267Z,6.60
2019-04-21T20:59:43.834Z,7.35
2019-04-21T21:02:20.259Z,7.70
2019-04-21T21:04:45.517Z,7.22
2019-04-21T21:07:36.528Z,6.95
2019-04-21T21:09:57.732Z,7.12
2019-04-21T21:12:27.667Z,6.75
2019-04-21T21:14:50.267Z,6.65
2019-04-21T21:17:36.059Z,6.45
2019-04-21T21:19:55.138Z,7.17
2019-04-21T21:22:14.879Z,7.78
2019-04-21T21:24:53.465Z,7.25
2019-04-21T21:27:24.130Z,7.42
2019-04-21T21:29:50.299Z,7.50
2019-04-21T21:32:20.780Z,7.62
2019-04-21T21:34:49.725Z,7.60
2019-04-21T21:40:01.095Z,6.90
2019-04-21T21:42:07.665Z,7.10
2019-04-21T21:44:39.369Z,6.78
2019-04-21T21:47:19.133Z,6.75
2019-04-21T21:49:48.405Z,5.97
2019-04-21T21:52:13.239Z,6.50
2019-04-21T21:54:35.976Z,6.60
2019-04-21T21:57:04.832Z,6.25
2019-04-21T21:59:36.922Z,6.47
2019-04-21T22:02:03.935Z,6.78
2019-04-21T22:04:35.579Z,6.62
2019-04-21T22:07:09.229Z,6.53
2019-04-21T22:09:34.512Z,7.20
2019-04-21T22:12:06.622Z,6.30
2019-04-21T22:14:41.047Z,6.85
2019-04-21T22:17:16.157Z,6.40
2019-04-21T22:19:58.232Z,6.80
2019-04-21T22:22:21.544Z,7.45
2019-04-21T22:24:46.861Z,6.92
2019-04-21T22:27:03.196Z,6.80
2019-04-21T22:29:38.185Z,7.20
2019-04-21T22:32:09.385Z,6.55
2019-04-21T22:34:38.173Z,8.05
2019-04-21T22:37:18.057Z,7.62
2019-04-21T22:39:49.686Z,7.45
2019-04-21T22:42:11.463Z,7.72
2019-04-21T22:44:50.776Z,8.18
2019-04-21T22:47:25.065Z,7.53
2019-04-21T22:49:48.996Z,7.33
2019-04-21T22:52:21.060Z,7.37
2019-04-21T22:54:48.857Z,7.62
2019-04-21T22:57:21.427Z,7.65
2019-04-21T22:59:55.215Z,7.50
2019-04-21T23:02:22.634Z,8.15
2019-04-21T23:04:51.497Z,7.50
2019-04-21T23:07:20.359Z,7.65
2019-04-21T23:09:47.508Z,8.43
2019-04-21T23:12:24.020Z,7.90
2019-04-21T23:14:55.191Z,8.55
2019-04-21T23:17:32.313Z,7.78
2019-04-21T23:20:04.600Z,8.33
2019-04-21T23:22:32.638Z,8.50
2019-04-21T23:25:09.458Z,8.23
2019-04-21T23:27:34.196Z,8.75
2019-04-21T23:30:17.816Z,8.83
2019-04-21T23:32:27.610Z,8.30
2019-04-21T23:34:47.285Z,8.53
2019-04-21T23:37:20.239Z,7.90
2019-04-21T23:39:45.698Z,8.15
2019-04-21T23:42:20.739Z,8.68
2019-04-21T23:44:49.430Z,7.47
2019-04-21T23:47:29.300Z,7.90
2019-04-21T23:49:55.772Z,6.95
2019-04-21T23:52:16.015Z,7.45
2019-04-21T23:54:45.180Z,7.45
2019-04-21T23:57:20.873Z,7.28
2019-04-21T23:59:47.122Z,7.22
